Time;durP1;ratioP1;P1;durP2;ratioP2;P2;SDS_P1;SDS_P2;PMS_P1;PMS_P2;Temp;Humidity;BMP_temperature;BMP_pressure;BME280_temperature;BME280_humidity;BME280_pressure;Samples;Min_cycle;Max_cycle;Signal;HPM_P1;HPM_P2
2022/07/07 00:03:18;;;;;;;3.45;2.20;;;;;;;;;;5051330;28;20476;-72
2022/07/07 00:05:44;;;;;;;4.10;2.00;;;;;;;;;;5050735;28;20017;-72
2022/07/07 00:08:10;;;;;;;2.95;2.00;;;;;;;;;;5050565;28;20385;-72
2022/07/07 00:10:36;;;;;;;2.88;1.75;;;;;;;;;;5050604;28;20367;-72
2022/07/07 00:13:03;;;;;;;3.55;2.05;;;;;;;;;;5049326;28;20079;-72
2022/07/07 00:16:27;;;;;;;5.80;2.42;;;;;;;;;;5111226;27;20428;-72
2022/07/07 00:18:55;;;;;;;2.85;1.80;;;;;;;;;;5111330;28;20016;-72
2022/07/07 00:21:21;;;;;;;4.15;1.70;;;;;;;;;;5127083;28;20024;-72
2022/07/07 00:23:47;;;;;;;2.97;2.00;;;;;;;;;;5126771;28;20031;-72
2022/07/07 00:26:13;;;;;;;3.95;2.25;;;;;;;;;;5111203;28;20089;-71
2022/07/07 00:28:39;;;;;;;2.38;2.00;;;;;;;;;;5111311;28;20077;-72
2022/07/07 00:31:27;;;;;;;3.72;2.00;;;;;;;;;;5111164;27;20927;-72
2022/07/07 00:36:04;;;;;;;3.50;2.13;;;;;;;;;;5111523;27;20423;-72
2022/07/07 00:38:30;;;;;;;4.93;2.33;;;;;;;;;;5109811;28;20537;-72
2022/07/07 00:43:50;;;;;;;3.60;2.60;;;;;;;;;;5111020;27;20424;-72
2022/07/07 00:46:16;;;;;;;4.40;2.20;;;;;;;;;;5111283;28;20410;-72
2022/07/07 00:48:55;;;;;;;3.67;2.38;;;;;;;;;;5111908;27;20892;-72
2022/07/07 00:51:59;;;;;;;2.25;1.77;;;;;;;;;;5111103;27;20761;-72
2022/07/07 00:57:45;;;;;;;4.22;2.38;;;;;;;;;;5091468;27;20463;-72
2022/07/07 01:00:14;;;;;;;5.72;2.40;;;;;;;;;;5106723;28;20085;-72
2022/07/07 01:02:55;;;;;;;4.22;2.38;;;;;;;;;;5111813;27;20416;-72
2022/07/07 01:05:23;;;;;;;4.40;2.33;;;;;;;;;;5110958;28;20062;-72
2022/07/07 01:10:22;;;;;;;3.80;2.20;;;;;;;;;;5111708;27;20765;-72
2022/07/07 01:14:17;;;;;;;3.05;2.03;;;;;;;;;;5111410;27;20493;-72
2022/07/07 01:16:44;;;;;;;4.32;1.98;;;;;;;;;;5110020;28;20035;-72
2022/07/07 01:19:58;;;;;;;4.32;2.35;;;;;;;;;;5111168;27;20977;-72
2022/07/07 01:22:26;;;;;;;3.75;2.20;;;;;;;;;;5110067;28;20024;-72
2022/07/07 01:26:15;;;;;;;2.90;1.77;;;;;;;;;;5111106;27;20453;-72
2022/07/07 01:28:41;;;;;;;3.65;2.10;;;;;;;;;;5110134;28;20031;-73
2022/07/07 01:31:08;;;;;;;5.30;2.28;;;;;;;;;;5111262;28;20020;-72
2022/07/07 01:37:33;;;;;;;5.15;2.35;;;;;;;;;;5111699;27;20477;-74
2022/07/07 01:41:19;;;;;;;7.47;2.67;;;;;;;;;;5111028;27;20804;-72
2022/07/07 01:46:21;;;;;;;3.45;2.08;;;;;;;;;;5111586;27;20393;-73
2022/07/07 01:49:46;;;;;;;3.33;2.10;;;;;;;;;;5111661;27;20397;-72
2022/07/07 01:57:13;;;;;;;3.35;2.20;;;;;;;;;;5112252;27;20745;-71
2022/07/07 02:03:11;;;;;;;3.35;2.05;;;;;;;;;;5112167;27;20977;-72
2022/07/07 02:06:18;;;;;;;4.95;2.10;;;;;;;;;;5112186;27;20434;-72
2022/07/07 02:08:44;;;;;;;5.40;2.47;;;;;;;;;;5109662;28;20026;-72
2022/07/07 02:11:13;;;;;;;5.68;2.45;;;;;;;;;;5110098;28;20078;-72
2022/07/07 02:13:40;;;;;;;3.00;2.00;;;;;;;;;;5111309;28;20020;-72
2022/07/07 02:16:27;;;;;;;3.22;2.03;;;;;;;;;;5111105;27;20714;-72
2022/07/07 02:23:13;;;;;;;3.03;1.95;;;;;;;;;;5111058;27;20385;-72
2022/07/07 02:30:51;;;;;;;4.05;2.38;;;;;;;;;;5111029;27;20458;-72
2022/07/07 02:33:17;;;;;;;4.47;2.50;;;;;;;;;;5110326;28;20122;-72
2022/07/07 02:35:43;;;;;;;4.05;2.40;;;;;;;;;;5110902;28;20028;-72
2022/07/07 02:38:10;;;;;;;3.38;2.13;;;;;;;;;;5111291;28;20016;-73
2022/07/07 02:40:36;;;;;;;3.55;2.00;;;;;;;;;;5111180;28;20019;-73
2022/07/07 02:43:56;;;;;;;3.22;2.30;;;;;;;;;;5111287;27;20847;-72
2022/07/07 02:46:22;;;;;;;5.32;2.28;;;;;;;;;;5111388;28;20028;-72
2022/07/07 02:48:48;;;;;;;4.13;2.28;;;;;;;;;;5111261;28;20032;-72
2022/07/07 02:51:14;;;;;;;4.10;2.13;;;;;;;;;;5110889;28;20087;-72
2022/07/07 02:53:41;;;;;;;5.57;2.13;;;;;;;;;;5109936;28;20020;-72
2022/07/07 02:56:07;;;;;;;3.75;2.28;;;;;;;;;;5109943;28;20084;-72
2022/07/07 02:58:33;;;;;;;4.75;2.20;;;;;;;;;;5109419;28;20495;-72
2022/07/07 03:00:59;;;;;;;3.00;1.83;;;;;;;;;;5111026;28;20099;-72
2022/07/07 03:03:25;;;;;;;3.15;1.83;;;;;;;;;;5109747;28;20622;-72
2022/07/07 03:08:32;;;;;;;4.65;2.05;;;;;;;;;;5111457;27;20993;-72
2022/07/07 03:11:38;;;;;;;5.22;2.28;;;;;;;;;;5030474;27;20902;-72
2022/07/07 03:15:42;;;;;;;4.28;2.00;;;;;;;;;;5112141;27;20392;-72
2022/07/07 03:18:08;;;;;;;5.32;2.13;;;;;;;;;;5109777;28;20035;-72
2022/07/07 03:20:35;;;;;;;2.72;1.75;;;;;;;;;;5110070;28;20024;-72
2022/07/07 03:23:01;;;;;;;3.25;1.90;;;;;;;;;;5110020;28;20024;-72
2022/07/07 03:30:06;;;;;;;3.33;1.75;;;;;;;;;;5112073;27;20457;-73
2022/07/07 03:32:32;;;;;;;2.13;1.65;;;;;;;;;;5110962;28;20069;-72
2022/07/07 03:34:58;;;;;;;3.13;1.90;;;;;;;;;;5111297;28;20020;-72
2022/07/07 03:38:42;;;;;;;3.20;1.63;;;;;;;;;;5030930;28;20453;-73
2022/07/07 03:41:08;;;;;;;2.83;1.83;;;;;;;;;;5030556;28;20036;-73
2022/07/07 03:43:34;;;;;;;4.15;1.70;;;;;;;;;;5029634;28;20056;-73
2022/07/07 03:49:28;;;;;;;4.15;2.00;;;;;;;;;;5092214;27;20464;-73
2022/07/07 03:51:54;;;;;;;3.67;2.05;;;;;;;;;;5091011;28;20103;-72
2022/07/07 03:56:10;;;;;;;2.97;1.83;;;;;;;;;;5111516;27;20450;-73
2022/07/07 03:58:36;;;;;;;4.18;2.10;;;;;;;;;;5111363;28;20028;-72
2022/07/07 04:01:03;;;;;;;3.85;2.40;;;;;;;;;;5110914;28;20107;-72
2022/07/07 04:03:29;;;;;;;3.30;1.70;;;;;;;;;;5111291;28;20024;-72
2022/07/07 04:05:55;;;;;;;3.78;2.30;;;;;;;;;;5109932;28;20030;-72
2022/07/07 04:09:33;;;;;;;4.82;1.92;;;;;;;;;;5071142;28;20427;-73
2022/07/07 04:11:59;;;;;;;2.53;1.70;;;;;;;;;;5069608;28;20117;-72
2022/07/07 04:14:25;;;;;;;2.15;1.65;;;;;;;;;;5070323;28;20020;-72
2022/07/07 04:16:51;;;;;;;5.10;1.58;;;;;;;;;;5070800;28;20029;-72
2022/07/07 04:19:17;;;;;;;2.30;1.67;;;;;;;;;;5070662;28;20104;-72
2022/07/07 04:21:43;;;;;;;3.17;1.75;;;;;;;;;;5070280;28;20046;-72
2022/07/07 04:28:49;;;;;;;3.55;1.60;;;;;;;;;;5111327;27;20782;-73
2022/07/07 04:31:47;;;;;;;2.80;2.10;;;;;;;;;;5111770;27;20461;-72
2022/07/07 04:34:13;;;;;;;3.88;2.13;;;;;;;;;;5111351;28;20051;-72
2022/07/07 04:37:18;;;;;;;3.10;1.98;;;;;;;;;;5111012;27;20401;-73
2022/07/07 04:43:28;;;;;;;3.25;1.90;;;;;;;;;;5111419;27;20392;-73
2022/07/07 04:46:39;;;;;;;2.20;1.58;;;;;;;;;;5111820;27;20483;-73
2022/07/07 04:49:47;;;;;;;3.35;1.75;;;;;;;;;;5110980;27;20401;-73
2022/07/07 04:52:14;;;;;;;2.33;1.58;;;;;;;;;;5110122;28;20496;-73
2022/07/07 04:56:37;;;;;;;2.38;1.70;;;;;;;;;;5111097;27;20962;-72
2022/07/07 05:00:28;;;;;;;3.72;1.60;;;;;;;;;;5071481;28;20399;-73
2022/07/07 05:02:54;;;;;;;2.75;1.70;;;;;;;;;;5070799;28;20036;-72
2022/07/07 05:05:31;;;;;;;2.88;1.40;;;;;;;;;;5111106;27;20953;-74
2022/07/07 05:07:57;;;;;;;3.58;1.77;;;;;;;;;;5112219;28;20047;-79
2022/07/07 05:11:51;;;;;;;3.08;1.52;;;;;;;;;;5112864;27;20398;-79
2022/07/07 05:14:17;;;;;;;3.15;1.95;;;;;;;;;;5111701;28;20024;-79
2022/07/07 05:16:43;;;;;;;2.60;1.70;;;;;;;;;;5111668;28;20027;-79
2022/07/07 05:21:02;;;;;;;2.55;1.35;;;;;;;;;;5111622;27;20422;-79
2022/07/07 05:23:28;;;;;;;2.35;1.50;;;;;;;;;;5110477;28;20032;-79
2022/07/07 05:25:55;;;;;;;2.45;1.33;;;;;;;;;;5111067;28;20019;-79
2022/07/07 05:28:21;;;;;;;2.70;1.30;;;;;;;;;;5111201;28;20051;-80
2022/07/07 05:31:38;;;;;;;3.25;1.42;;;;;;;;;;5111764;27;20456;-81
2022/07/07 05:35:22;;;;;;;2.80;1.40;;;;;;;;;;5115279;27;20426;-79
2022/07/07 05:39:30;;;;;;;3.00;1.67;;;;;;;;;;5108527;27;20434;-79
2022/07/07 05:42:39;;;;;;;3.92;2.10;;;;;;;;;;5166813;27;20330;-73
2022/07/07 05:46:37;;;;;;;3.25;1.30;;;;;;;;;;5104332;27;20475;-76
2022/07/07 05:50:30;;;;;;;2.63;1.45;;;;;;;;;;5111384;27;20412;-75
2022/07/07 05:53:54;;;;;;;3.05;1.27;;;;;;;;;;5099897;27;20471;-80
2022/07/07 05:57:22;;;;;;;1.70;1.23;;;;;;;;;;5110270;27;20854;-74
2022/07/07 05:59:48;;;;;;;2.13;1.42;;;;;;;;;;5107218;28;20107;-77
2022/07/07 06:03:01;;;;;;;2.22;1.30;;;;;;;;;;5109544;27;20494;-76
2022/07/07 06:05:27;;;;;;;2.47;1.20;;;;;;;;;;5110053;28;20118;-78
2022/07/07 06:07:53;;;;;;;2.28;1.20;;;;;;;;;;5110023;28;20073;-78
2022/07/07 06:10:19;;;;;;;2.67;1.40;;;;;;;;;;5107177;28;20024;-76
2022/07/07 06:13:02;;;;;;;2.13;1.23;;;;;;;;;;5086715;27;20460;-72
2022/07/07 06:15:32;;;;;;;3.30;1.45;;;;;;;;;;5088262;28;20029;-73
2022/07/07 06:18:00;;;;;;;3.55;1.40;;;;;;;;;;5074227;28;20048;-75
2022/07/07 06:20:26;;;;;;;1.90;1.30;;;;;;;;;;5076381;28;20088;-74
2022/07/07 06:25:00;;;;;;;1.98;1.13;;;;;;;;;;5110518;27;20830;-74
2022/07/07 06:28:20;;;;;;;4.88;1.27;;;;;;;;;;5075189;28;20989;-74
2022/07/07 06:30:46;;;;;;;2.00;1.20;;;;;;;;;;5089185;28;20039;-73
2022/07/07 06:33:12;;;;;;;2.88;1.67;;;;;;;;;;5078796;28;20043;-72
2022/07/07 06:35:38;;;;;;;2.40;1.25;;;;;;;;;;5067685;28;20092;-77
2022/07/07 06:38:04;;;;;;;5.53;2.80;;;;;;;;;;5063675;28;20021;-74
2022/07/07 06:40:30;;;;;;;4.85;1.98;;;;;;;;;;5073887;28;20028;-73
2022/07/07 06:42:56;;;;;;;5.10;1.75;;;;;;;;;;5077092;28;20028;-75
2022/07/07 06:45:23;;;;;;;2.35;1.38;;;;;;;;;;5067126;28;20036;-74
2022/07/07 06:47:50;;;;;;;2.38;1.02;;;;;;;;;;5078315;28;20127;-72
2022/07/07 06:50:17;;;;;;;2.15;1.30;;;;;;;;;;5082030;28;20025;-73
2022/07/07 06:52:43;;;;;;;3.75;1.60;;;;;;;;;;5075506;28;20073;-74
2022/07/07 06:55:10;;;;;;;1.63;1.20;;;;;;;;;;5074432;28;20500;-74
2022/07/07 06:58:59;;;;;;;1.95;1.30;;;;;;;;;;5104673;27;20800;-73
2022/07/07 07:01:26;;;;;;;2.47;1.38;;;;;;;;;;5108470;28;20499;-74
2022/07/07 07:03:52;;;;;;;4.50;1.67;;;;;;;;;;5089554;28;20048;-75
2022/07/07 07:06:19;;;;;;;2.42;1.33;;;;;;;;;;5087934;28;20070;-73
2022/07/07 07:12:40;;;;;;;2.22;1.60;;;;;;;;;;5065345;28;20492;-71
2022/07/07 07:15:06;;;;;;;2.22;1.52;;;;;;;;;;5064345;28;20033;-73
2022/07/07 07:19:42;;;;;;;2.95;1.77;;;;;;;;;;5064270;28;20478;-73
2022/07/07 07:22:08;;;;;;;1.52;1.30;;;;;;;;;;5048081;28;20029;-73
2022/07/07 07:26:47;;;;;;;2.35;1.63;;;;;;;;;;5124489;27;20923;-72
2022/07/07 07:29:14;;;;;;;4.30;1.50;;;;;;;;;;5102070;28;20032;-71
2022/07/07 07:32:02;;;;;;;3.72;1.75;;;;;;;;;;5107557;27;20903;-71
2022/07/07 07:34:28;;;;;;;2.17;1.40;;;;;;;;;;5098920;28;20024;-72
2022/07/07 07:36:54;;;;;;;3.78;1.67;;;;;;;;;;5113131;28;20092;-72
2022/07/07 07:42:43;;;;;;;3.05;1.80;;;;;;;;;;5076165;28;21154;-71
2022/07/07 07:45:10;;;;;;;3.63;1.50;;;;;;;;;;5087156;28;20048;-72
2022/07/07 07:47:39;;;;;;;7.28;2.13;;;;;;;;;;5076542;28;20047;-72
2022/07/07 07:50:06;;;;;;;4.07;1.75;;;;;;;;;;5067953;28;20055;-72
2022/07/07 07:53:21;;;;;;;4.13;1.50;;;;;;;;;;5110378;27;20420;-71
2022/07/07 07:55:47;;;;;;;1.83;1.48;;;;;;;;;;5105990;28;20024;-74
2022/07/07 07:58:13;;;;;;;3.40;1.50;;;;;;;;;;5108943;28;20024;-76
2022/07/07 08:00:39;;;;;;;4.10;1.85;;;;;;;;;;5122757;28;20019;-75
2022/07/07 08:03:06;;;;;;;3.70;1.80;;;;;;;;;;5097120;27;20020;-76
2022/07/07 08:05:32;;;;;;;2.35;1.55;;;;;;;;;;5113467;28;20027;-77
2022/07/07 08:07:58;;;;;;;2.10;1.42;;;;;;;;;;5084074;28;21490;-72
2022/07/07 08:11:08;;;;;;;2.88;1.65;;;;;;;;;;5084854;27;20406;-73
2022/07/07 08:13:34;;;;;;;2.53;1.60;;;;;;;;;;5084718;28;20036;-75
2022/07/07 08:16:00;;;;;;;3.88;2.20;;;;;;;;;;5078030;28;20114;-74
2022/07/07 08:18:28;;;;;;;4.05;2.70;;;;;;;;;;5100178;28;20024;-76
2022/07/07 08:20:54;;;;;;;4.57;1.80;;;;;;;;;;5088821;28;20408;-76
2022/07/07 08:23:20;;;;;;;2.25;1.40;;;;;;;;;;5086789;28;20021;-76
2022/07/07 08:25:47;;;;;;;2.40;1.60;;;;;;;;;;5087305;28;20085;-77
2022/07/07 08:31:37;;;;;;;3.30;1.67;;;;;;;;;;5109053;27;20420;-74
2022/07/07 08:34:03;;;;;;;2.63;1.50;;;;;;;;;;5087477;28;20025;-77
2022/07/07 08:36:33;;;;;;;3.97;1.65;;;;;;;;;;5101531;28;20097;-77
2022/07/07 08:39:00;;;;;;;3.35;1.90;;;;;;;;;;5108163;28;20020;-76
2022/07/07 08:41:26;;;;;;;1.95;1.42;;;;;;;;;;5105553;28;20035;-74
2022/07/07 08:43:52;;;;;;;5.57;2.15;;;;;;;;;;5099173;28;20036;-78
2022/07/07 08:46:19;;;;;;;4.40;1.90;;;;;;;;;;5107611;28;20123;-77
2022/07/07 08:49:11;;;;;;;5.28;2.05;;;;;;;;;;5108929;27;20588;-75
2022/07/07 08:51:45;;;;;;;3.30;1.70;;;;;;;;;;5101382;28;20476;-75
2022/07/07 08:54:12;;;;;;;2.45;1.60;;;;;;;;;;5101522;28;20043;-76
2022/07/07 08:56:38;;;;;;;2.17;1.40;;;;;;;;;;5098666;28;20024;-77
2022/07/07 08:59:05;;;;;;;3.63;1.40;;;;;;;;;;5098960;28;20091;-77
2022/07/07 09:01:32;;;;;;;2.08;1.58;;;;;;;;;;5114874;28;20031;-76
2022/07/07 09:03:58;;;;;;;2.65;1.60;;;;;;;;;;5101229;28;20056;-77
2022/07/07 09:06:24;;;;;;;3.83;1.42;;;;;;;;;;5111097;28;20483;-74
2022/07/07 09:08:51;;;;;;;2.55;1.70;;;;;;;;;;5098694;27;20043;-75
2022/07/07 09:11:24;;;;;;;4.03;1.85;;;;;;;;;;5100587;28;20016;-75
2022/07/07 09:14:42;;;;;;;5.95;1.92;;;;;;;;;;5108076;27;20424;-74
2022/07/07 09:17:16;;;;;;;2.80;1.90;;;;;;;;;;5111435;28;20020;-73
2022/07/07 09:20:19;;;;;;;5.15;1.75;;;;;;;;;;5109592;27;20914;-75
2022/07/07 09:23:53;;;;;;;3.05;1.80;;;;;;;;;;5104981;27;20487;-74
2022/07/07 09:26:33;;;;;;;3.53;1.33;;;;;;;;;;5092105;28;20024;-74
2022/07/07 09:29:00;;;;;;;9.02;1.77;;;;;;;;;;5086307;28;20056;-74
2022/07/07 09:31:26;;;;;;;5.80;1.70;;;;;;;;;;5082791;28;20039;-75
2022/07/07 09:34:12;;;;;;;2.15;1.60;;;;;;;;;;5091696;28;20123;-72
2022/07/07 09:39:22;;;;;;;3.42;2.30;;;;;;;;;;5075907;28;20142;-74
2022/07/07 09:41:49;;;;;;;7.32;1.63;;;;;;;;;;5094304;28;20024;-77
2022/07/07 09:44:16;;;;;;;13.80;2.17;;;;;;;;;;5097182;28;20031;-77
2022/07/07 09:46:42;;;;;;;1.67;1.33;;;;;;;;;;5070438;28;20619;-78
2022/07/07 09:49:12;;;;;;;2.83;1.60;;;;;;;;;;5077495;28;20033;-77
2022/07/07 09:51:38;;;;;;;1.92;1.40;;;;;;;;;;5084050;28;20024;-80
2022/07/07 09:54:08;;;;;;;5.88;1.67;;;;;;;;;;5082765;28;20025;-77
2022/07/07 09:56:39;;;;;;;3.42;1.50;;;;;;;;;;5088605;28;20756;-76
2022/07/07 09:59:16;;;;;;;2.67;1.65;;;;;;;;;;5073703;28;20031;-78
2022/07/07 10:01:46;;;;;;;3.85;1.70;;;;;;;;;;5079554;28;20024;-79
2022/07/07 10:04:14;;;;;;;2.20;1.75;;;;;;;;;;5098647;28;20131;-76
2022/07/07 10:06:41;;;;;;;7.47;2.33;;;;;;;;;;5077750;28;20116;-75
2022/07/07 10:09:08;;;;;;;2.60;1.40;;;;;;;;;;5069187;28;20024;-77
2022/07/07 10:11:38;;;;;;;4.82;1.52;;;;;;;;;;5088445;28;20032;-76
2022/07/07 10:14:12;;;;;;;4.28;1.70;;;;;;;;;;5076188;28;20029;-76
2022/07/07 10:16:38;;;;;;;2.20;1.38;;;;;;;;;;5081355;28;20023;-75
2022/07/07 10:19:05;;;;;;;2.13;1.35;;;;;;;;;;5075595;28;20025;-75
2022/07/07 10:21:31;;;;;;;2.25;1.60;;;;;;;;;;5085542;28;20032;-75
2022/07/07 10:23:57;;;;;;;3.40;1.40;;;;;;;;;;5086310;28;20028;-76
2022/07/07 10:26:36;;;;;;;3.05;1.67;;;;;;;;;;5085956;28;20035;-77
2022/07/07 10:29:02;;;;;;;2.38;1.30;;;;;;;;;;5087098;28;20028;-79
2022/07/07 10:31:30;;;;;;;3.47;1.55;;;;;;;;;;5087077;28;20103;-76
2022/07/07 10:34:05;;;;;;;2.97;1.52;;;;;;;;;;5080249;28;20025;-77
2022/07/07 10:36:47;;;;;;;3.17;1.52;;;;;;;;;;5072329;28;20035;-78
2022/07/07 10:39:14;;;;;;;2.70;1.77;;;;;;;;;;5074863;28;20028;-75
2022/07/07 10:41:40;;;;;;;2.22;1.52;;;;;;;;;;5073335;28;20041;-75
2022/07/07 10:44:07;;;;;;;4.32;1.95;;;;;;;;;;5074462;28;20031;-75
2022/07/07 10:46:35;;;;;;;2.45;1.48;;;;;;;;;;5091609;28;20028;-79
2022/07/07 10:49:11;;;;;;;2.45;1.63;;;;;;;;;;5075245;28;20336;-74
2022/07/07 10:51:54;;;;;;;2.67;1.50;;;;;;;;;;5091375;28;20534;-75
2022/07/07 10:54:36;;;;;;;3.10;1.70;;;;;;;;;;5075650;28;20025;-75
2022/07/07 10:57:12;;;;;;;3.33;1.63;;;;;;;;;;5089652;28;20160;-75
2022/07/07 10:59:58;;;;;;;2.20;1.25;;;;;;;;;;5075495;28;20020;-76
2022/07/07 11:02:30;;;;;;;1.88;1.33;;;;;;;;;;5074201;28;20028;-78
2022/07/07 11:05:00;;;;;;;2.15;1.20;;;;;;;;;;5075531;28;20103;-74
2022/07/07 11:07:27;;;;;;;2.00;1.48;;;;;;;;;;5075789;28;20021;-77
2022/07/07 11:09:57;;;;;;;3.60;1.50;;;;;;;;;;5075329;28;20020;-78
2022/07/07 11:12:42;;;;;;;4.70;1.60;;;;;;;;;;5074570;28;20053;-77
2022/07/07 11:15:30;;;;;;;2.80;1.50;;;;;;;;;;5075261;28;20040;-76
2022/07/07 11:17:56;;;;;;;2.28;1.40;;;;;;;;;;5075015;28;20074;-75
2022/07/07 11:20:24;;;;;;;4.20;1.52;;;;;;;;;;5073971;28;20029;-74
2022/07/07 11:22:54;;;;;;;3.17;1.50;;;;;;;;;;5073579;28;20087;-76
2022/07/07 11:25:23;;;;;;;3.08;1.25;;;;;;;;;;5074856;28;20376;-75
2022/07/07 11:27:50;;;;;;;3.38;1.80;;;;;;;;;;5070397;28;20492;-75
2022/07/07 11:30:17;;;;;;;2.38;1.50;;;;;;;;;;5067045;28;20108;-76
2022/07/07 11:32:44;;;;;;;3.60;1.40;;;;;;;;;;5078339;28;20485;-77
2022/07/07 11:35:11;;;;;;;1.85;1.20;;;;;;;;;;5082527;28;20036;-72
2022/07/07 11:37:42;;;;;;;2.10;1.15;;;;;;;;;;5071246;28;20036;-73
2022/07/07 11:40:13;;;;;;;3.05;1.30;;;;;;;;;;5073312;28;20075;-73
2022/07/07 11:42:40;;;;;;;1.73;0.98;;;;;;;;;;5072528;28;20032;-72
2022/07/07 11:45:25;;;;;;;1.75;1.20;;;;;;;;;;5072097;28;20021;-72
2022/07/07 11:47:53;;;;;;;1.92;1.30;;;;;;;;;;5073735;28;20024;-73
2022/07/07 11:50:19;;;;;;;1.85;1.30;;;;;;;;;;5071981;28;20480;-72
2022/07/07 11:52:49;;;;;;;3.33;1.42;;;;;;;;;;5073459;28;20108;-73
2022/07/07 11:55:17;;;;;;;1.70;1.02;;;;;;;;;;5072435;28;20033;-73
2022/07/07 11:57:49;;;;;;;2.35;1.20;;;;;;;;;;5073643;28;20051;-73
2022/07/07 12:00:16;;;;;;;1.88;1.00;;;;;;;;;;5073275;28;20021;-73
2022/07/07 12:02:43;;;;;;;3.70;1.02;;;;;;;;;;5072092;28;20067;-73
2022/07/07 12:05:09;;;;;;;1.42;0.93;;;;;;;;;;5073799;28;20077;-73
2022/07/07 12:07:35;;;;;;;2.35;1.20;;;;;;;;;;5074158;28;20032;-75
2022/07/07 12:10:02;;;;;;;2.10;1.20;;;;;;;;;;5073171;28;20041;-77
2022/07/07 12:12:29;;;;;;;2.53;1.60;;;;;;;;;;5072602;28;20370;-72
2022/07/07 12:14:55;;;;;;;1.88;1.10;;;;;;;;;;5072962;28;20024;-74
2022/07/07 12:17:40;;;;;;;1.92;1.00;;;;;;;;;;5074425;28;20021;-72
2022/07/07 12:20:15;;;;;;;1.48;1.10;;;;;;;;;;5073979;28;20025;-73
2022/07/07 12:22:43;;;;;;;1.33;1.00;;;;;;;;;;5074094;28;20085;-72
2022/07/07 12:25:10;;;;;;;1.65;1.00;;;;;;;;;;5074162;28;20538;-73
2022/07/07 12:27:51;;;;;;;2.65;1.10;;;;;;;;;;5073670;28;20063;-74
2022/07/07 12:30:18;;;;;;;2.05;0.90;;;;;;;;;;5074286;28;20021;-74
2022/07/07 12:32:47;;;;;;;5.32;2.47;;;;;;;;;;5074198;28;20409;-74
2022/07/07 12:35:32;;;;;;;1.40;1.10;;;;;;;;;;5072527;28;20392;-75
2022/07/07 12:38:00;;;;;;;1.55;1.08;;;;;;;;;;5073901;28;20032;-74
2022/07/07 12:40:27;;;;;;;1.30;1.00;;;;;;;;;;5073821;28;20138;-74
2022/07/07 12:42:53;;;;;;;2.38;1.15;;;;;;;;;;5072579;28;20039;-74
2022/07/07 12:45:19;;;;;;;2.55;1.10;;;;;;;;;;5072465;28;20480;-75
2022/07/07 12:47:50;;;;;;;1.65;1.17;;;;;;;;;;5073335;28;20570;-73
2022/07/07 12:50:16;;;;;;;1.70;1.20;;;;;;;;;;5073705;28;20052;-73
2022/07/07 12:52:53;;;;;;;2.42;1.33;;;;;;;;;;5073673;28;20118;-73
2022/07/07 12:55:19;;;;;;;2.05;1.15;;;;;;;;;;5071959;28;20388;-73
2022/07/07 12:57:45;;;;;;;1.95;1.30;;;;;;;;;;5072084;28;20388;-73
2022/07/07 13:00:23;;;;;;;1.83;1.02;;;;;;;;;;5073585;28;20079;-74
2022/07/07 13:02:49;;;;;;;4.20;1.50;;;;;;;;;;5073246;28;20029;-74
2022/07/07 13:05:16;;;;;;;1.88;1.10;;;;;;;;;;5073836;28;20025;-74
2022/07/07 13:07:42;;;;;;;3.35;1.17;;;;;;;;;;5073559;28;20021;-73
2022/07/07 13:10:08;;;;;;;2.30;1.48;;;;;;;;;;5073238;28;20023;-74
2022/07/07 13:12:35;;;;;;;4.82;1.33;;;;;;;;;;5073474;28;20390;-73
2022/07/07 13:15:02;;;;;;;3.05;1.02;;;;;;;;;;5073573;28;20029;-74
2022/07/07 13:17:28;;;;;;;1.58;1.15;;;;;;;;;;5071742;28;20480;-74
2022/07/07 13:19:54;;;;;;;2.28;1.13;;;;;;;;;;5073672;28;20025;-74
2022/07/07 13:22:20;;;;;;;1.42;1.23;;;;;;;;;;5073168;28;20397;-73
2022/07/07 13:24:46;;;;;;;2.10;1.10;;;;;;;;;;5072946;28;20028;-73
2022/07/07 13:27:12;;;;;;;2.88;1.10;;;;;;;;;;5073304;28;20020;-75
2022/07/07 13:29:40;;;;;;;1.88;1.30;;;;;;;;;;5073614;28;20021;-73
2022/07/07 13:32:06;;;;;;;2.38;1.20;;;;;;;;;;5072102;28;20034;-73
2022/07/07 13:34:33;;;;;;;5.63;1.40;;;;;;;;;;5073515;28;20021;-73
2022/07/07 13:36:59;;;;;;;1.52;1.05;;;;;;;;;;5072897;28;20025;-74
2022/07/07 13:39:25;;;;;;;1.52;1.13;;;;;;;;;;5073210;28;20099;-75
2022/07/07 13:41:51;;;;;;;4.28;1.30;;;;;;;;;;5073094;28;20064;-73
2022/07/07 13:44:17;;;;;;;2.88;1.73;;;;;;;;;;5072819;28;20020;-73
2022/07/07 13:46:45;;;;;;;2.60;1.20;;;;;;;;;;5073280;28;20048;-73
2022/07/07 13:49:11;;;;;;;2.00;1.15;;;;;;;;;;5071851;28;20473;-73
2022/07/07 13:51:37;;;;;;;1.33;0.93;;;;;;;;;;5072697;28;20488;-73
2022/07/07 13:54:03;;;;;;;2.58;1.30;;;;;;;;;;5073049;28;20025;-73
2022/07/07 13:56:29;;;;;;;1.15;1.00;;;;;;;;;;5073203;28;20074;-73
2022/07/07 13:58:56;;;;;;;2.28;1.17;;;;;;;;;;5072630;28;20047;-72
2022/07/07 14:01:22;;;;;;;2.40;1.25;;;;;;;;;;5071716;28;20056;-72
2022/07/07 14:03:48;;;;;;;2.33;1.45;;;;;;;;;;5072990;28;20032;-74
2022/07/07 14:06:15;;;;;;;1.67;1.27;;;;;;;;;;5072609;28;20029;-74
2022/07/07 14:08:41;;;;;;;4.35;1.35;;;;;;;;;;5072406;28;20487;-74
2022/07/07 14:11:08;;;;;;;3.33;1.40;;;;;;;;;;5076963;28;20021;-74
2022/07/07 14:13:34;;;;;;;1.70;1.23;;;;;;;;;;5076237;28;20048;-73
2022/07/07 14:16:00;;;;;;;3.13;1.23;;;;;;;;;;5076568;28;20125;-73
2022/07/07 14:18:26;;;;;;;3.95;1.30;;;;;;;;;;5076146;28;20377;-73
2022/07/07 14:20:52;;;;;;;2.60;1.33;;;;;;;;;;5074876;28;20358;-72
2022/07/07 14:23:18;;;;;;;2.30;1.17;;;;;;;;;;5076249;28;20086;-73
2022/07/07 14:25:45;;;;;;;5.32;1.50;;;;;;;;;;5076462;28;20104;-73
2022/07/07 14:28:11;;;;;;;1.65;1.08;;;;;;;;;;5076013;28;20099;-73
2022/07/07 14:30:37;;;;;;;1.65;1.10;;;;;;;;;;5076258;28;20051;-72
2022/07/07 14:33:03;;;;;;;1.75;1.23;;;;;;;;;;5075918;28;20021;-72
2022/07/07 14:35:29;;;;;;;1.40;1.10;;;;;;;;;;5074900;28;20028;-72
2022/07/07 14:37:55;;;;;;;1.75;1.00;;;;;;;;;;5076189;28;20056;-72
2022/07/07 14:40:21;;;;;;;2.53;1.30;;;;;;;;;;5075669;28;20028;-73
2022/07/07 14:42:47;;;;;;;2.13;1.15;;;;;;;;;;5076074;28;20412;-73
2022/07/07 14:45:14;;;;;;;1.90;1.00;;;;;;;;;;5076061;28;20021;-72
2022/07/07 14:47:41;;;;;;;2.03;1.10;;;;;;;;;;5075741;28;20047;-72
2022/07/07 14:50:07;;;;;;;2.92;0.90;;;;;;;;;;5076076;28;20036;-72
2022/07/07 14:52:33;;;;;;;1.08;0.93;;;;;;;;;;5075750;28;20024;-73
2022/07/07 14:54:59;;;;;;;1.90;0.90;;;;;;;;;;5075678;28;20045;-73
2022/07/07 14:57:26;;;;;;;2.00;1.10;;;;;;;;;;5074541;28;20029;-74
2022/07/07 14:59:52;;;;;;;1.30;0.93;;;;;;;;;;5075864;28;20017;-73
2022/07/07 15:02:18;;;;;;;5.05;0.90;;;;;;;;;;5075257;28;20035;-73
2022/07/07 15:04:44;;;;;;;2.53;1.00;;;;;;;;;;5075699;28;20024;-74
2022/07/07 15:07:10;;;;;;;1.60;1.10;;;;;;;;;;5075515;28;20029;-73
2022/07/07 15:09:36;;;;;;;3.63;1.10;;;;;;;;;;5075189;28;20388;-73
2022/07/07 15:12:03;;;;;;;2.28;1.17;;;;;;;;;;5075521;28;20118;-73
2022/07/07 15:14:29;;;;;;;3.22;1.38;;;;;;;;;;5075349;28;20035;-73
2022/07/07 15:16:55;;;;;;;1.85;1.00;;;;;;;;;;5073875;28;20040;-74
2022/07/07 15:19:22;;;;;;;2.10;1.30;;;;;;;;;;5075250;28;20372;-74
2022/07/07 15:21:49;;;;;;;2.17;1.42;;;;;;;;;;5075049;28;20071;-74
2022/07/07 15:24:15;;;;;;;1.50;1.10;;;;;;;;;;5074897;28;20051;-74
2022/07/07 15:26:42;;;;;;;1.85;1.13;;;;;;;;;;5075193;28;20021;-72
2022/07/07 15:29:08;;;;;;;2.00;1.20;;;;;;;;;;5075077;28;20031;-72
2022/07/07 15:31:34;;;;;;;1.48;1.00;;;;;;;;;;5074760;28;20020;-72
2022/07/07 15:34:00;;;;;;;1.60;1.10;;;;;;;;;;5075085;28;20024;-72
2022/07/07 15:36:27;;;;;;;2.05;1.20;;;;;;;;;;5074737;28;20021;-72
2022/07/07 15:38:53;;;;;;;1.75;1.20;;;;;;;;;;5075104;28;20036;-74
2022/07/07 15:41:19;;;;;;;2.72;1.05;;;;;;;;;;5075018;28;20020;-73
2022/07/07 15:43:47;;;;;;;1.80;1.00;;;;;;;;;;5074480;28;20113;-77
2022/07/07 15:46:15;;;;;;;1.83;1.00;;;;;;;;;;5073634;28;20380;-74
2022/07/07 15:48:45;;;;;;;1.73;1.05;;;;;;;;;;5074841;28;20546;-77
2022/07/07 15:51:12;;;;;;;1.30;0.90;;;;;;;;;;5073138;28;20479;-75
2022/07/07 15:53:39;;;;;;;2.17;0.90;;;;;;;;;;5074692;28;20384;-75
2022/07/07 15:56:05;;;;;;;2.65;1.17;;;;;;;;;;5074742;28;20031;-73
2022/07/07 15:58:32;;;;;;;1.70;1.20;;;;;;;;;;5074134;28;20496;-71
2022/07/07 16:00:58;;;;;;;2.25;1.17;;;;;;;;;;5074519;28;20516;-74
2022/07/07 16:03:24;;;;;;;4.25;1.33;;;;;;;;;;5074413;28;20105;-74
2022/07/07 16:05:50;;;;;;;2.45;1.35;;;;;;;;;;5074060;28;20027;-73
2022/07/07 16:08:16;;;;;;;1.38;1.15;;;;;;;;;;5074390;28;20025;-73
2022/07/07 16:10:42;;;;;;;2.00;1.10;;;;;;;;;;5073163;28;20036;-73
2022/07/07 16:13:09;;;;;;;4.05;1.15;;;;;;;;;;5073955;28;20024;-73
2022/07/07 16:15:35;;;;;;;1.27;1.13;;;;;;;;;;5074309;28;20024;-75
2022/07/07 16:18:01;;;;;;;2.75;1.75;;;;;;;;;;5074256;28;20028;-74
2022/07/07 16:20:28;;;;;;;1.73;1.20;;;;;;;;;;5073984;28;20480;-74
2022/07/07 16:22:54;;;;;;;1.52;1.30;;;;;;;;;;5073934;28;20126;-75
2022/07/07 16:25:21;;;;;;;6.70;1.30;;;;;;;;;;5072918;28;20016;-74
2022/07/07 16:27:47;;;;;;;3.75;1.30;;;;;;;;;;5073740;28;20052;-75
2022/07/07 16:30:18;;;;;;;3.72;1.35;;;;;;;;;;5072610;28;20024;-72
2022/07/07 16:32:45;;;;;;;1.80;1.35;;;;;;;;;;5071938;28;20439;-73
2022/07/07 16:35:12;;;;;;;3.22;2.22;;;;;;;;;;5072888;28;20029;-73
2022/07/07 16:37:38;;;;;;;1.98;1.20;;;;;;;;;;5072890;28;20126;-73
2022/07/07 16:40:04;;;;;;;3.58;1.50;;;;;;;;;;5073429;28;20032;-73
2022/07/07 16:42:31;;;;;;;3.70;1.15;;;;;;;;;;5072409;28;20519;-75
2022/07/07 16:44:57;;;;;;;2.03;1.25;;;;;;;;;;5074059;28;20108;-74